Time;durP1;ratioP1;P1;durP2;ratioP2;P2;SDS_P1;SDS_P2;PMS_P1;PMS_P2;Temp;Humidity;BMP_temperature;BMP_pressure;BME280_temperature;BME280_humidity;BME280_pressure;Samples;Min_cycle;Max_cycle;Signal;HPM_P1;HPM_P2
2021/12/07 00:01:28;;;;;;;49.65;23.57;;;;;;;-1.25;83.99;100400.82;1695856;84;21488;-72
2021/12/07 00:03:54;;;;;;;42.75;24.05;;;;;;;-1.28;83.98;100395.78;1695902;84;20921;-72
2021/12/07 00:06:20;;;;;;;53.63;28.67;;;;;;;-1.25;83.98;100401.66;1695677;84;21139;-72
2021/12/07 00:08:46;;;;;;;88.80;42.45;;;;;;;-1.24;83.99;100398.59;1695856;84;24225;-72
2021/12/07 00:11:13;;;;;;;63.35;28.50;;;;;;;-1.24;83.98;100399.89;1694763;84;21503;-72
2021/12/07 00:13:39;;;;;;;51.80;26.62;;;;;;;-1.27;83.98;100399.63;1694327;84;21008;-72
2021/12/07 00:16:09;;;;;;;57.48;26.93;;;;;;;-1.27;84.01;100398.78;1694411;84;21074;-72
2021/12/07 00:18:35;;;;;;;130.27;58.80;;;;;;;-1.27;84.02;100392.24;1694153;84;21862;-72
2021/12/07 00:21:02;;;;;;;58.10;30.23;;;;;;;-1.27;84.01;100389.63;1694147;84;21554;-72
2021/12/07 00:23:28;;;;;;;62.65;31.27;;;;;;;-1.30;84.01;100391.94;1693239;84;21080;-72
2021/12/07 00:25:54;;;;;;;73.57;34.45;;;;;;;-1.26;84.03;100391.28;1692701;84;20904;-72
2021/12/07 00:28:21;;;;;;;59.63;28.83;;;;;;;-1.23;84.01;100385.39;1692646;84;21656;-72
2021/12/07 00:30:49;;;;;;;51.92;27.37;;;;;;;-1.23;84.00;100389.81;1693043;84;21093;-72
2021/12/07 00:33:30;;;;;;;57.13;30.02;;;;;;;-1.21;84.02;100395.77;1692672;84;21026;-72
2021/12/07 00:35:43;;;;;;;48.68;27.13;;;;;;;-1.22;84.02;100400.16;1692277;83;21076;-72
2021/12/07 00:38:16;;;;;;;81.67;40.20;;;;;;;-1.23;84.03;100403.70;1698109;84;20952;-73
2021/12/07 00:40:42;;;;;;;192.32;96.55;;;;;;;-1.25;84.01;100398.20;1698302;84;21079;-72
2021/12/07 00:43:08;;;;;;;153.85;70.30;;;;;;;-1.23;84.01;100400.27;1681675;84;21107;-72
2021/12/07 00:45:35;;;;;;;179.87;81.30;;;;;;;-1.23;84.04;100411.55;1658856;86;21021;-72
2021/12/07 00:48:03;;;;;;;72.78;35.38;;;;;;;-1.25;84.02;100407.36;1648501;87;21363;-72
2021/12/07 00:50:29;;;;;;;53.20;26.62;;;;;;;-1.25;84.02;100402.13;1645102;87;21026;-72
2021/12/07 00:52:55;;;;;;;51.25;27.60;;;;;;;-1.26;84.04;100395.20;1668244;86;21026;-72
2021/12/07 00:55:27;;;;;;;61.28;28.75;;;;;;;-1.28;84.05;100397.09;1668631;86;21165;-72
2021/12/07 00:57:56;;;;;;;50.43;27.48;;;;;;;-1.29;84.04;100396.24;1668670;85;21024;-72
2021/12/07 01:00:21;;;;;;;55.85;28.07;;;;;;;-1.26;84.05;100396.52;1668583;85;21036;-72
2021/12/07 01:02:47;;;;;;;50.95;25.02;;;;;;;-1.28;84.03;100390.55;1669095;85;21061;-72
2021/12/07 01:05:18;;;;;;;61.33;30.50;;;;;;;-1.28;84.03;100398.40;1668612;86;21770;-72
2021/12/07 01:26:39;;;;;;;50.38;26.87;;;;;;;-1.32;83.99;100386.44;1667897;86;21022;-72
2021/12/07 01:29:05;;;;;;;50.55;26.20;;;;;;;-1.33;83.99;100388.67;1667704;86;20938;-73
2021/12/07 01:31:43;;;;;;;72.45;36.80;;;;;;;-1.35;83.99;100388.78;1667657;86;21049;-72
2021/12/07 01:34:36;;;;;;;54.38;29.75;;;;;;;-1.36;83.99;100388.87;1665665;86;21634;-72
2021/12/07 01:47:49;;;;;;;71.67;35.10;;;;;;;-1.39;84.02;100381.22;1659533;86;21262;-72
2021/12/07 01:52:57;;;;;;;90.20;42.80;;;;;;;-1.42;84.01;100378.80;1686014;85;21042;-72
2021/12/07 02:00:34;;;;;;;88.03;42.30;;;;;;;-1.51;84.00;100377.11;1678541;85;21126;-72
2021/12/07 02:03:00;;;;;;;60.98;31.10;;;;;;;-1.53;84.03;100373.77;1678529;85;21076;-72
2021/12/07 02:05:26;;;;;;;51.23;29.02;;;;;;;-1.54;84.02;100381.22;1678482;85;26381;-72
2021/12/07 02:07:52;;;;;;;67.00;34.27;;;;;;;-1.56;84.01;100375.27;1678689;85;21333;-72
2021/12/07 02:10:22;;;;;;;60.60;31.40;;;;;;;-1.57;84.00;100377.49;1654617;85;20917;-72
2021/12/07 02:12:47;;;;;;;55.38;29.77;;;;;;;-1.56;84.00;100375.72;1675026;85;21529;-72
2021/12/07 02:15:16;;;;;;;63.35;33.35;;;;;;;-1.57;84.01;100373.58;1675281;85;21095;-72
2021/12/07 02:17:43;;;;;;;74.45;39.25;;;;;;;-1.59;84.00;100362.38;1675369;84;21477;-72
2021/12/07 02:20:10;;;;;;;70.87;36.77;;;;;;;-1.62;84.00;100357.81;1675513;84;21028;-72
2021/12/07 02:22:36;;;;;;;59.15;30.88;;;;;;;-1.62;84.00;100352.09;1675163;85;21649;-73
2021/12/07 02:25:07;;;;;;;62.62;33.08;;;;;;;-1.62;84.00;100356.00;1675291;85;21193;-72
2021/12/07 02:27:33;;;;;;;58.65;31.35;;;;;;;-1.63;83.99;100356.97;1675139;85;21034;-72
2021/12/07 02:29:59;;;;;;;64.00;33.23;;;;;;;-1.63;83.98;100355.66;1674975;85;25979;-72
2021/12/07 02:32:25;;;;;;;62.35;33.13;;;;;;;-1.64;83.99;100348.73;1675196;85;21083;-72
2021/12/07 02:34:58;;;;;;;59.50;30.15;;;;;;;-1.65;84.00;100354.89;1676383;85;21064;-72
2021/12/07 02:37:25;;;;;;;68.55;35.95;;;;;;;-1.67;83.97;100362.00;1678361;85;21100;-72
2021/12/07 02:39:51;;;;;;;59.10;30.05;;;;;;;-1.67;83.99;100358.55;1677924;85;21036;-72
2021/12/07 02:42:17;;;;;;;61.73;30.48;;;;;;;-1.67;83.96;100363.31;1677495;85;21020;-72
2021/12/07 02:44:43;;;;;;;61.77;29.02;;;;;;;-1.70;83.98;100361.34;1674899;85;21567;-72
2021/12/07 02:47:09;;;;;;;59.88;30.43;;;;;;;-1.74;83.95;100356.77;1677110;85;21004;-72
2021/12/07 02:49:35;;;;;;;58.85;28.27;;;;;;;-1.77;83.95;100358.27;1678499;85;21934;-72
2021/12/07 02:52:02;;;;;;;65.25;31.30;;;;;;;-1.79;83.93;100360.58;1678576;85;26930;-72
2021/12/07 02:54:31;;;;;;;60.08;29.92;;;;;;;-1.81;83.92;100359.38;1678622;85;21509;-72
2021/12/07 02:56:56;;;;;;;85.83;38.45;;;;;;;-1.83;83.93;100354.70;1678582;85;21073;-72
2021/12/07 02:59:24;;;;;;;72.95;32.33;;;;;;;-1.83;83.92;100342.94;1678612;85;21008;-72
2021/12/07 03:01:59;;;;;;;73.90;33.95;;;;;;;-1.85;83.90;100344.81;1678516;85;21677;-72
2021/12/07 03:04:23;;;;;;;56.37;26.97;;;;;;;-1.86;83.91;100346.20;1677175;85;21020;-72
2021/12/07 03:28:17;;;;;;;75.03;38.85;;;;;;;-2.03;83.85;100332.86;1651029;86;22678;-72
2021/12/07 03:30:42;;;;;;;81.08;39.40;;;;;;;-2.06;83.85;100327.82;1651048;86;26947;-72
2021/12/07 03:33:08;;;;;;;73.90;35.25;;;;;;;-2.08;83.84;100332.31;1655959;85;25802;-72
2021/12/07 03:35:35;;;;;;;76.67;36.98;;;;;;;-2.09;83.83;100341.07;1678441;85;21611;-72
2021/12/07 03:38:01;;;;;;;82.02;38.92;;;;;;;-2.12;83.85;100338.64;1678696;85;21548;-72
2021/12/07 03:40:27;;;;;;;90.00;43.02;;;;;;;-2.14;83.81;100340.49;1677252;85;21068;-72
2021/12/07 03:42:53;;;;;;;89.47;40.55;;;;;;;-2.16;83.84;100337.14;1675238;84;26884;-72
2021/12/07 03:45:19;;;;;;;87.25;40.52;;;;;;;-2.17;83.81;100338.91;1674902;85;26472;-72
2021/12/07 03:47:45;;;;;;;75.32;35.55;;;;;;;-2.20;83.81;100336.48;1675135;85;20912;-72
2021/12/07 03:50:11;;;;;;;77.15;35.78;;;;;;;-2.21;83.82;100341.78;1675273;85;20944;-72
2021/12/07 03:52:37;;;;;;;75.08;36.93;;;;;;;-2.24;83.81;100328.91;1678423;85;21098;-72
2021/12/07 03:55:04;;;;;;;94.45;41.00;;;;;;;-2.25;83.81;100332.48;1678539;85;27449;-72
2021/12/07 03:57:30;;;;;;;106.58;48.83;;;;;;;-2.25;83.82;100335.09;1678553;85;21092;-72
2021/12/07 03:59:56;;;;;;;77.40;34.55;;;;;;;-2.27;83.81;100327.80;1678586;85;28685;-72
2021/12/07 04:02:23;;;;;;;77.72;36.23;;;;;;;-2.28;83.83;100323.49;1678524;85;20902;-73
2021/12/07 04:04:58;;;;;;;78.78;35.50;;;;;;;-2.29;83.83;100323.98;1677166;85;21719;-72
2021/12/07 04:07:16;;;;;;;80.40;34.83;;;;;;;-2.29;83.83;100320.53;1675238;84;21481;-73
2021/12/07 04:09:42;;;;;;;87.67;39.15;;;;;;;-2.27;83.83;100326.48;1675135;85;25866;-72
2021/12/07 04:12:08;;;;;;;97.53;40.45;;;;;;;-2.25;83.83;100327.26;1675170;85;20892;-73
2021/12/07 04:14:34;;;;;;;114.92;46.37;;;;;;;-2.26;83.83;100321.19;1675231;85;21007;-73
2021/12/07 04:17:00;;;;;;;116.37;48.98;;;;;;;-2.24;83.84;100319.31;1675174;85;21186;-72
2021/12/07 04:19:26;;;;;;;88.70;41.58;;;;;;;-2.23;83.84;100326.69;1675270;85;26902;-72
2021/12/07 04:21:52;;;;;;;88.20;38.55;;;;;;;-2.21;83.83;100327.42;1675250;85;25833;-72
2021/12/07 04:24:18;;;;;;;96.78;42.05;;;;;;;-2.20;83.82;100329.11;1677282;84;21016;-72
2021/12/07 04:26:44;;;;;;;104.32;42.80;;;;;;;-2.16;83.84;100331.92;1678522;85;21497;-72
2021/12/07 04:29:10;;;;;;;113.85;47.00;;;;;;;-2.16;83.84;100330.61;1678352;85;21181;-72
2021/12/07 04:31:36;;;;;;;82.88;36.35;;;;;;;-2.14;83.83;100332.66;1678264;85;26918;-72
2021/12/07 04:34:02;;;;;;;88.37;39.80;;;;;;;-2.12;83.83;100337.34;1678562;85;26429;-72
2021/12/07 04:36:28;;;;;;;112.92;45.40;;;;;;;-2.11;83.84;100333.80;1678088;83;20985;-72
2021/12/07 04:38:54;;;;;;;82.92;38.05;;;;;;;-2.08;83.84;100341.45;1678656;85;20906;-72
2021/12/07 04:41:20;;;;;;;90.50;40.70;;;;;;;-2.08;83.84;100332.31;1678527;85;21630;-72
2021/12/07 04:43:48;;;;;;;81.00;39.88;;;;;;;-2.06;83.84;100336.50;1678401;85;21000;-72
2021/12/07 04:46:21;;;;;;;87.90;39.25;;;;;;;-2.04;83.85;100332.47;1678103;85;21020;-72
2021/12/07 04:59:34;;;;;;;78.33;36.73;;;;;;;-1.98;83.88;100338.66;1675229;85;21032;-72
2021/12/07 05:02:00;;;;;;;67.22;33.13;;;;;;;-1.96;83.87;100332.86;1675082;84;20869;-72
2021/12/07 05:04:30;;;;;;;71.87;33.50;;;;;;;-1.97;83.88;100329.05;1675280;85;20944;-72
2021/12/07 05:07:03;;;;;;;76.15;35.58;;;;;;;-1.97;83.89;100323.83;1674873;85;21758;-72
2021/12/07 05:10:10;;;;;;;82.65;36.60;;;;;;;-1.96;83.88;100330.25;1675252;84;21581;-72
2021/12/07 05:14:39;;;;;;;76.55;34.15;;;;;;;-1.94;83.90;100332.33;1678470;85;21012;-73
2021/12/07 05:38:45;;;;;;;73.80;35.43;;;;;;;-1.83;83.94;100332.48;1675130;85;21083;-72
2021/12/07 05:41:11;;;;;;;119.08;64.42;;;;;;;-1.85;83.96;100327.83;1675139;85;21058;-72
2021/12/07 05:43:37;;;;;;;76.87;33.38;;;;;;;-1.84;83.95;100333.44;1677136;85;21035;-73
2021/12/07 05:46:03;;;;;;;90.83;44.67;;;;;;;-1.83;83.95;100327.27;1678260;84;21326;-73
2021/12/07 05:48:29;;;;;;;111.88;55.12;;;;;;;-1.81;83.99;100333.25;1678549;85;21517;-72
2021/12/07 05:50:55;;;;;;;84.75;38.42;;;;;;;-1.82;83.98;100334.17;1678677;85;21017;-73
2021/12/07 05:53:21;;;;;;;83.60;42.40;;;;;;;-1.82;83.97;100335.48;1678591;85;20922;-72
2021/12/07 05:55:47;;;;;;;87.55;46.48;;;;;;;-1.80;83.99;100341.94;1678708;85;21028;-73
2021/12/07 05:58:13;;;;;;;89.95;45.35;;;;;;;-1.79;83.98;100351.44;1678355;85;21058;-72
2021/12/07 06:00:43;;;;;;;87.97;43.83;;;;;;;-1.81;83.96;100352.85;1678765;85;21033;-72
2021/12/07 06:03:09;;;;;;;94.20;46.30;;;;;;;-1.80;83.99;100353.70;1678147;85;21576;-73
2021/12/07 06:05:35;;;;;;;105.50;56.50;;;;;;;-1.80;83.98;100348.47;1675095;85;21796;-72
2021/12/07 06:08:02;;;;;;;91.60;42.35;;;;;;;-1.80;84.00;100355.00;1675187;84;21106;-73
2021/12/07 06:10:28;;;;;;;70.05;32.42;;;;;;;-1.81;84.00;100350.23;1675113;85;21221;-72
2021/12/07 06:12:54;;;;;;;82.10;36.60;;;;;;;-1.82;83.98;100349.02;1676124;85;21037;-72
2021/12/07 06:15:22;;;;;;;89.58;41.02;;;;;;;-1.81;84.01;100354.62;1677940;85;21611;-72
2021/12/07 06:17:48;;;;;;;76.30;36.68;;;;;;;-1.80;84.01;100357.62;1675239;85;21063;-72
2021/12/07 06:20:15;;;;;;;72.67;32.08;;;;;;;-1.79;84.01;100362.73;1676801;83;21045;-72
2021/12/07 06:22:41;;;;;;;66.20;31.25;;;;;;;-1.77;84.03;100361.34;1678869;85;21159;-72
2021/12/07 06:25:07;;;;;;;72.67;35.30;;;;;;;-1.77;84.04;100369.19;1677584;85;26919;-73
2021/12/07 06:27:33;;;;;;;76.30;34.20;;;;;;;-1.77;84.01;100367.42;1671264;85;21087;-73
2021/12/07 06:29:59;;;;;;;68.78;32.45;;;;;;;-1.74;84.03;100375.53;1671313;85;20967;-73
2021/12/07 06:32:25;;;;;;;68.87;33.58;;;;;;;-1.74;84.03;100377.69;1672393;85;21103;-73
2021/12/07 06:34:51;;;;;;;65.60;28.85;;;;;;;-1.74;84.04;100373.77;1677854;85;21103;-72
2021/12/07 06:37:17;;;;;;;70.85;30.15;;;;;;;-1.73;84.06;100375.45;1665762;85;27447;-73
2021/12/07 06:39:44;;;;;;;81.90;37.15;;;;;;;-1.74;84.05;100364.62;1678359;84;21084;-72
2021/12/07 06:42:11;;;;;;;70.05;34.08;;;;;;;-1.74;84.09;100368.53;1680903;84;21076;-72
2021/12/07 06:44:37;;;;;;;71.57;33.48;;;;;;;-1.75;84.07;100366.84;1677949;84;21155;-72
2021/12/07 06:47:04;;;;;;;76.25;32.83;;;;;;;-1.73;84.08;100370.22;1693603;83;21939;-72
2021/12/07 06:49:30;;;;;;;80.80;36.70;;;;;;;-1.71;84.09;100367.04;1694416;84;21584;-73
2021/12/07 06:51:57;;;;;;;76.22;34.10;;;;;;;-1.71;84.10;100370.95;1695473;84;25859;-72
2021/12/07 06:54:26;;;;;;;90.20;39.78;;;;;;;-1.72;84.09;100371.88;1695118;84;21064;-72
2021/12/07 06:56:52;;;;;;;57.50;26.23;;;;;;;-1.73;84.12;100377.22;1692467;83;21052;-72
2021/12/07 06:59:18;;;;;;;76.85;35.73;;;;;;;-1.75;84.12;100372.08;1695439;84;21710;-72
2021/12/07 07:01:45;;;;;;;75.10;34.45;;;;;;;-1.76;84.12;100378.22;1695109;84;27445;-72
2021/12/07 07:04:13;;;;;;;70.08;34.50;;;;;;;-1.77;84.12;100376.56;1697975;83;21088;-73
2021/12/07 07:06:39;;;;;;;83.35;36.98;;;;;;;-1.76;84.13;100380.84;1692439;84;21056;-73
2021/12/07 07:09:05;;;;;;;151.65;66.67;;;;;;;-1.75;84.14;100385.14;1695566;84;21019;-73
2021/12/07 07:11:31;;;;;;;104.83;46.15;;;;;;;-1.75;84.13;100386.45;1695385;84;21051;-73
2021/12/07 07:13:57;;;;;;;120.00;48.78;;;;;;;-1.73;84.16;100395.52;1695574;84;26900;-73
2021/12/07 07:16:23;;;;;;;233.57;107.22;;;;;;;-1.76;84.15;100391.30;1724456;83;26324;-73
2021/12/07 07:18:49;;;;;;;474.40;217.00;;;;;;;-1.72;84.15;100401.09;1694863;84;29106;-72
2021/12/07 07:21:15;;;;;;;453.80;150.05;;;;;;;-1.74;84.16;100395.98;1693929;84;20931;-73
2021/12/07 07:23:40;;;;;;;601.52;263.30;;;;;;;-1.73;84.17;100400.28;1694881;84;21203;-73
2021/12/07 07:26:06;;;;;;;426.98;194.02;;;;;;;-1.70;84.17;100404.02;1691547;84;26929;-72
2021/12/07 07:28:33;;;;;;;257.95;126.30;;;;;;;-1.70;84.17;100397.94;1692521;84;21116;-72
2021/12/07 07:30:59;;;;;;;151.85;69.97;;;;;;;-1.70;84.19;100405.33;1692415;84;21042;-73
2021/12/07 07:33:25;;;;;;;115.92;59.20;;;;;;;-1.70;84.20;100401.40;1692204;83;21038;-72
2021/12/07 07:35:51;;;;;;;162.72;68.55;;;;;;;-1.71;84.20;100395.80;1692233;83;21881;-73
2021/12/07 07:38:18;;;;;;;182.25;68.15;;;;;;;-1.70;84.21;100409.24;1692839;84;21467;-73
2021/12/07 07:40:46;;;;;;;94.45;42.08;;;;;;;-1.68;84.23;100411.28;1692941;84;21112;-73
2021/12/07 07:43:16;;;;;;;138.52;56.42;;;;;;;-1.66;84.23;100411.20;1696393;84;21073;-73
2021/12/07 07:45:44;;;;;;;;;;;;;;;-1.66;84.24;100408.12;1694268;83;21031;-73
2021/12/07 07:48:10;;;;;;;142.05;57.33;;;;;;;-1.65;84.25;100412.41;1695031;83;21302;-72
2021/12/07 07:50:36;;;;;;;167.50;59.58;;;;;;;-1.64;84.26;100423.24;1680430;83;27455;-72
2021/12/07 07:53:02;;;;;;;195.95;64.05;;;;;;;-1.64;84.26;100426.32;1679600;84;25861;-72
2021/12/07 07:55:28;;;;;;;135.35;47.50;;;;;;;-1.63;84.25;100422.78;1675982;85;21013;-72
2021/12/07 07:57:54;;;;;;;121.05;46.02;;;;;;;-1.62;84.27;100425.28;1680136;84;21760;-73
2021/12/07 08:00:21;;;;;;;100.47;41.15;;;;;;;-1.61;84.26;100425.67;1677942;84;21181;-72
2021/12/07 08:02:47;;;;;;;92.30;40.92;;;;;;;-1.63;84.27;100419.70;1673391;84;21025;-72
2021/12/07 08:05:14;;;;;;;77.58;35.98;;;;;;;-1.62;84.27;100417.44;1671749;85;21031;-73
2021/12/07 08:07:40;;;;;;;75.92;35.30;;;;;;;-1.63;84.28;100419.70;1676747;85;21084;-72
2021/12/07 08:10:08;;;;;;;101.90;42.20;;;;;;;-1.65;84.27;100413.70;1677703;85;21009;-72
2021/12/07 08:12:35;;;;;;;85.97;38.42;;;;;;;-1.68;84.25;100421.74;1679118;84;21711;-72
2021/12/07 08:15:01;;;;;;;83.35;37.25;;;;;;;-1.68;84.24;100425.66;1676856;85;21477;-72
2021/12/07 08:17:27;;;;;;;316.30;141.65;;;;;;;-1.67;84.25;100424.73;1677956;85;21041;-72
2021/12/07 08:19:53;;;;;;;220.10;89.05;;;;;;;-1.66;84.26;100423.81;1680044;83;22188;-72
2021/12/07 08:22:19;;;;;;;851.95;339.23;;;;;;;-1.65;84.26;100424.63;1683003;83;21570;-73
2021/12/07 08:24:45;;;;;;;352.95;127.65;;;;;;;-1.66;84.23;100425.12;1704779;83;21350;-73
2021/12/07 08:27:12;;;;;;;521.12;185.45;;;;;;;-1.64;84.25;100428.47;1692569;83;21121;-73
2021/12/07 08:29:38;;;;;;;531.63;207.90;;;;;;;-1.62;84.24;100439.66;1688166;83;21099;-73
2021/12/07 08:32:05;;;;;;;608.70;238.40;;;;;;;-1.64;84.23;100440.70;1690957;83;20928;-73
2021/12/07 08:34:31;;;;;;;127.02;48.45;;;;;;;-1.64;84.22;100433.70;1688031;82;21056;-72
2021/12/07 08:36:57;;;;;;;305.18;117.13;;;;;;;-1.63;84.23;100434.08;1684765;83;21288;-73
2021/12/07 08:39:23;;;;;;;105.87;43.05;;;;;;;-1.62;84.22;100437.05;1696276;83;26947;-73
2021/12/07 08:41:49;;;;;;;144.95;60.15;;;;;;;-1.62;84.21;100443.59;1684211;83;21166;-73
2021/12/07 08:44:16;;;;;;;75.17;35.35;;;;;;;-1.64;84.20;100433.70;1680074;83;23326;-73
2021/12/07 08:46:42;;;;;;;90.15;40.73;;;;;;;-1.62;84.18;100438.84;1687025;83;21025;-73
2021/12/07 08:49:08;;;;;;;112.97;48.68;;;;;;;-1.64;84.17;100440.23;1689895;83;21888;-73
2021/12/07 08:51:34;;;;;;;75.45;37.28;;;;;;;-1.66;84.14;100428.20;1709465;83;26909;-73
2021/12/07 08:54:21;;;;;;;73.70;33.88;;;;;;;-1.66;84.13;100426.43;1703225;83;21088;-73
2021/12/07 09:02:00;;;;;;;63.92;32.03;;;;;;;-1.61;84.08;100429.59;1689505;83;21146;-72
2021/12/07 09:04:26;;;;;;;62.25;29.92;;;;;;;-1.62;84.02;100434.93;1687065;83;27476;-73
2021/12/07 09:06:52;;;;;;;62.50;31.57;;;;;;;-1.65;84.02;100441.16;1692940;83;21565;-73
2021/12/07 09:09:18;;;;;;;65.70;32.45;;;;;;;-1.65;83.99;100435.08;1694035;83;20893;-73
2021/12/07 09:11:44;;;;;;;69.80;33.85;;;;;;;-1.62;83.95;100433.13;1691000;83;20904;-73
2021/12/07 09:14:11;;;;;;;67.55;33.23;;;;;;;-1.62;83.93;100438.36;1695782;83;21092;-72
2021/12/07 09:16:37;;;;;;;73.12;34.73;;;;;;;-1.59;83.91;100437.35;1679844;82;21073;-72
2021/12/07 09:19:04;;;;;;;82.33;39.30;;;;;;;-1.57;83.88;100444.16;1689796;83;26333;-72
2021/12/07 09:21:30;;;;;;;86.42;39.45;;;;;;;-1.56;83.89;100440.63;1693634;82;21791;-72
2021/12/07 09:23:56;;;;;;;103.02;48.08;;;;;;;-1.54;83.85;100438.75;1677262;83;21017;-72
2021/12/07 09:26:23;;;;;;;95.28;44.90;;;;;;;-1.52;83.85;100441.28;1678016;83;21180;-72
2021/12/07 09:28:49;;;;;;;83.82;38.02;;;;;;;-1.51;83.81;100442.94;1699401;83;21492;-72
2021/12/07 09:31:15;;;;;;;84.03;38.95;;;;;;;-1.48;83.79;100441.94;1706807;83;21065;-72
2021/12/07 09:33:41;;;;;;;69.07;32.17;;;;;;;-1.46;83.76;100437.44;1683442;83;20898;-72
2021/12/07 09:36:07;;;;;;;66.28;32.20;;;;;;;-1.47;83.73;100435.29;1695479;83;21007;-72
2021/12/07 09:38:33;;;;;;;72.95;35.65;;;;;;;-1.48;83.71;100436.70;1693311;83;21743;-72
2021/12/07 09:41:00;;;;;;;72.17;35.45;;;;;;;-1.47;83.69;100433.14;1697523;83;27435;-72
2021/12/07 09:43:26;;;;;;;68.87;34.03;;;;;;;-1.51;83.65;100430.72;1693260;83;21059;-72
2021/12/07 09:45:52;;;;;;;123.38;53.55;;;;;;;-1.46;83.66;100428.29;1702322;83;20991;-72
2021/12/07 09:48:18;;;;;;;94.10;42.83;;;;;;;-1.45;83.63;100428.21;1702258;83;21027;-72
2021/12/07 09:50:47;;;;;;;70.35;31.95;;;;;;;-1.44;83.61;100426.44;1678394;83;21328;-72
2021/12/07 09:53:14;;;;;;;78.80;37.60;;;;;;;-1.46;83.58;100424.37;1688090;83;21045;-72
2021/12/07 09:55:40;;;;;;;147.32;67.03;;;;;;;-1.47;83.55;100421.37;1685371;83;21607;-72
2021/12/07 09:58:06;;;;;;;311.05;112.75;;;;;;;-1.45;83.54;100423.45;1694613;83;21047;-73
2021/12/07 10:00:32;;;;;;;374.42;137.40;;;;;;;-1.38;83.52;100428.67;1680451;83;20918;-72
2021/12/07 10:02:58;;;;;;;427.82;136.05;;;;;;;-1.36;83.49;100420.25;1691228;83;21794;-72
2021/12/07 10:05:26;;;;;;;583.62;192.53;;;;;;;-1.36;83.49;100415.02;1689560;83;26895;-73
2021/12/07 10:07:52;;;;;;;373.35;124.22;;;;;;;-1.35;83.45;100419.33;1692189;83;21127;-72
2021/12/07 10:10:22;;;;;;;469.58;155.22;;;;;;;-1.34;83.43;100415.33;1682825;83;21091;-73
2021/12/07 10:12:48;;;;;;;577.25;181.32;;;;;;;-1.33;83.42;100414.83;1691175;83;21082;-72
2021/12/07 10:15:15;;;;;;;514.10;192.55;;;;;;;-1.32;83.39;100409.52;1687173;83;21831;-72
2021/12/07 10:17:42;;;;;;;256.27;98.35;;;;;;;-1.33;83.38;100410.91;1692522;83;21016;-72
2021/12/07 10:20:39;;;;;;;154.70;67.67;;;;;;;-1.33;83.36;100414.83;1683307;82;21082;-72
2021/12/07 10:23:20;;;;;;;182.95;80.62;;;;;;;-1.34;83.33;100410.55;1666347;83;21016;-72
2021/12/07 10:25:54;;;;;;;95.22;43.52;;;;;;;-1.35;83.30;100416.71;1697845;82;21034;-72
2021/12/07 10:28:37;;;;;;;107.32;50.73;;;;;;;-1.40;83.27;100406.98;1694050;82;21153;-72
2021/12/07 10:31:08;;;;;;;114.45;55.05;;;;;;;-1.38;83.24;100406.45;1693905;83;21548;-73
2021/12/07 10:33:43;;;;;;;105.07;51.00;;;;;;;-1.37;83.20;100400.29;1680552;83;21036;-73
2021/12/07 10:36:14;;;;;;;98.58;47.75;;;;;;;-1.35;83.18;100397.09;1700013;83;21077;-73
2021/12/07 10:38:41;;;;;;;94.37;45.63;;;;;;;-1.31;83.17;100388.98;1680289;83;21347;-72
2021/12/07 10:41:09;;;;;;;101.62;48.48;;;;;;;-1.26;83.14;100392.13;1685514;83;21095;-73
2021/12/07 10:43:44;;;;;;;92.20;42.98;;;;;;;-1.25;83.12;100392.97;1702929;83;21035;-72
2021/12/07 10:46:48;;;;;;;100.18;48.58;;;;;;;-1.22;83.13;100396.70;1695261;83;21117;-73
2021/12/07 10:49:42;;;;;;;98.40;44.73;;;;;;;-1.22;83.12;100401.94;1659610;85;21064;-73
2021/12/07 10:52:16;;;;;;;126.02;55.70;;;;;;;-1.27;83.11;100401.39;1660343;85;21082;-73
2021/12/07 10:54:53;;;;;;;103.38;48.28;;;;;;;-1.29;83.08;100405.86;1661071;85;21152;-72
2021/12/07 10:57:28;;;;;;;89.45;43.05;;;;;;;-1.29;83.06;100407.17;1660476;85;21094;-72
2021/12/07 11:00:02;;;;;;;121.15;57.15;;;;;;;-1.27;83.05;100402.23;1656365;85;21013;-72
2021/12/07 11:02:31;;;;;;;99.32;47.15;;;;;;;-1.22;83.02;100408.47;1646821;85;21639;-72
2021/12/07 11:04:57;;;;;;;98.90;46.10;;;;;;;-1.24;83.00;100407.28;1666072;85;21124;-73
2021/12/07 11:07:25;;;;;;;93.12;43.28;;;;;;;-1.25;83.00;100415.20;1671040;84;21788;-72
2021/12/07 11:10:08;;;;;;;98.35;44.88;;;;;;;-1.24;82.99;100411.66;1668638;84;21100;-72
2021/12/07 11:12:43;;;;;;;88.60;43.73;;;;;;;-1.25;82.96;100408.66;1665995;85;21028;-72
2021/12/07 11:15:13;;;;;;;89.05;41.50;;;;;;;-1.20;82.95;100414.47;1666264;85;21651;-72
2021/12/07 11:17:34;;;;;;;95.72;44.48;;;;;;;-1.19;82.93;100410.43;1663494;85;21048;-72
2021/12/07 11:20:01;;;;;;;86.32;42.30;;;;;;;-1.16;82.92;100404.19;1664097;85;21091;-72
2021/12/07 11:22:34;;;;;;;89.65;41.58;;;;;;;-1.09;82.91;100406.80;1663946;85;21007;-72
2021/12/07 11:25:03;;;;;;;166.50;69.37;;;;;;;-0.98;82.91;100404.78;1659898;85;21040;-72
2021/12/07 11:30:23;;;;;;;638.08;253.73;;;;;;;-0.70;82.88;100389.84;1664893;85;21777;-72
2021/12/07 11:32:56;;;;;;;152.85;65.67;;;;;;;-0.63;82.84;100394.20;1665771;85;21924;-73
2021/12/07 11:35:33;;;;;;;138.88;58.17;;;;;;;-0.62;82.83;100383.65;1662914;85;21012;-73
2021/12/07 11:38:03;;;;;;;246.32;99.90;;;;;;;-0.71;82.78;100390.80;1661453;85;21044;-73
2021/12/07 11:40:36;;;;;;;217.68;86.10;;;;;;;-0.83;82.75;100391.58;1662751;83;21144;-73
2021/12/07 11:43:03;;;;;;;322.35;119.55;;;;;;;-0.87;82.72;100383.55;1665714;85;21099;-72
2021/12/07 11:45:31;;;;;;;229.63;89.05;;;;;;;-0.94;82.69;100386.18;1639094;86;21882;-73
2021/12/07 11:48:01;;;;;;;157.18;63.23;;;;;;;-0.96;82.67;100390.69;1673366;84;20998;-73
2021/12/07 11:50:34;;;;;;;170.65;66.70;;;;;;;-0.93;82.66;100389.64;1686468;84;21001;-73
2021/12/07 11:53:07;;;;;;;139.60;58.63;;;;;;;-0.90;82.66;100392.91;1657248;84;21030;-73
2021/12/07 11:55:33;;;;;;;116.17;52.90;;;;;;;-0.91;82.61;100392.98;1671032;84;21034;-73
2021/12/07 11:58:00;;;;;;;258.05;106.67;;;;;;;-0.89;82.61;100394.59;1674824;83;21140;-73
2021/12/07 12:00:41;;;;;;;134.20;59.95;;;;;;;-0.83;82.62;100402.05;1672952;82;21006;-73
2021/12/07 12:03:12;;;;;;;115.75;48.17;;;;;;;-0.79;82.58;100402.23;1695183;84;21366;-73
2021/12/07 12:05:40;;;;;;;115.03;55.03;;;;;;;-0.78;82.56;100407.84;1681301;84;21002;-73
2021/12/07 12:08:09;;;;;;;109.80;53.20;;;;;;;-0.85;82.54;100414.41;1674630;83;21024;-73
2021/12/07 12:10:36;;;;;;;95.77;43.90;;;;;;;-0.86;82.49;100415.33;1666548;84;21167;-72
2021/12/07 12:13:34;;;;;;;105.37;50.03;;;;;;;-0.85;82.51;100411.79;1680811;84;21024;-72
2021/12/07 12:16:12;;;;;;;104.53;51.20;;;;;;;-0.88;82.49;100414.57;1661673;84;21032;-73
2021/12/07 12:19:32;;;;;;;96.57;45.20;;;;;;;-0.78;82.46;100422.23;1667397;84;21072;-73
2021/12/07 12:22:02;;;;;;;99.72;47.38;;;;;;;-0.79;82.44;100432.33;1674580;84;21069;-72
2021/12/07 12:24:49;;;;;;;94.92;46.53;;;;;;;-0.90;82.42;100429.55;1664946;84;21025;-73
2021/12/07 12:27:18;;;;;;;95.10;44.10;;;;;;;-0.87;82.43;100431.97;1665668;83;21056;-73
2021/12/07 12:29:47;;;;;;;103.70;48.90;;;;;;;-0.82;82.43;100427.76;1663665;84;21053;-72
2021/12/07 12:32:13;;;;;;;97.08;46.65;;;;;;;-0.82;82.40;100440.39;1684683;84;21020;-72
2021/12/07 12:34:48;;;;;;;91.08;44.53;;;;;;;-0.79;82.41;100434.95;1686880;84;20978;-73
2021/12/07 12:37:21;;;;;;;92.35;43.70;;;;;;;-0.78;82.42;100431.41;1672168;84;21824;-72
2021/12/07 12:39:54;;;;;;;106.83;49.23;;;;;;;-0.81;82.39;100431.57;1664040;84;21019;-73
2021/12/07 12:42:43;;;;;;;96.37;46.23;;;;;;;-0.89;82.39;100426.00;1675763;84;21080;-73
2021/12/07 12:45:27;;;;;;;100.42;47.98;;;;;;;-0.91;82.37;100425.23;1684020;84;21541;-73
2021/12/07 12:48:03;;;;;;;83.60;38.35;;;;;;;-0.92;82.39;100428.82;1678996;83;21187;-73
2021/12/07 12:50:46;;;;;;;72.37;35.52;;;;;;;-0.93;82.38;100428.44;1684258;84;21196;-73
2021/12/07 12:53:19;;;;;;;76.02;33.80;;;;;;;-0.98;82.36;100430.48;1670488;84;21032;-73
2021/12/07 12:55:58;;;;;;;73.05;32.85;;;;;;;-0.99;82.33;100432.75;1659438;84;21108;-73